Time;durP1;ratioP1;P1;durP2;ratioP2;P2;SDS_P1;SDS_P2;PMS_P1;PMS_P2;Temp;Humidity;BMP_temperature;BMP_pressure;BME280_temperature;BME280_humidity;BME280_pressure;Samples;Min_cycle;Max_cycle;Signal;HPM_P1;HPM_P2
2022/07/04 00:00:20;;;;;;;2.58;1.63;;;;;;;28.02;34.46;100671.41;4933953;29;20044;-74
2022/07/04 00:02:51;;;;;;;3.33;1.60;;;;;;;28.01;35.49;100681.16;4929762;29;20051;-74
2022/07/04 00:05:21;;;;;;;3.15;2.03;;;;;;;27.94;33.97;100671.75;4941658;29;20048;-74
2022/07/04 00:07:51;;;;;;;2.63;1.60;;;;;;;27.85;34.26;100678.31;4936569;29;20143;-74
2022/07/04 00:10:21;;;;;;;3.05;1.80;;;;;;;27.86;36.24;100676.56;4925525;29;20055;-74
2022/07/04 00:12:51;;;;;;;4.53;1.92;;;;;;;27.84;36.65;100673.09;4933449;29;20131;-73
2022/07/04 00:15:19;;;;;;;3.58;1.80;;;;;;;27.73;36.59;100670.84;4922957;29;20040;-73
2022/07/04 00:17:48;;;;;;;3.65;1.73;;;;;;;27.64;35.72;100664.13;4922592;29;20048;-73
2022/07/04 00:20:18;;;;;;;6.50;1.88;;;;;;;27.60;35.09;100662.53;4928773;29;20506;-73
2022/07/04 00:22:47;;;;;;;3.10;1.77;;;;;;;27.36;36.48;100661.78;4932714;29;20051;-75
2022/07/04 00:25:15;;;;;;;3.13;1.45;;;;;;;27.26;37.00;100657.78;4927437;29;20051;-74
2022/07/04 00:27:44;;;;;;;2.67;1.63;;;;;;;27.13;35.99;100660.06;4920614;29;20113;-74
2022/07/04 00:30:13;;;;;;;2.55;1.52;;;;;;;27.06;36.12;100661.25;4918972;29;20122;-74
2022/07/04 00:32:41;;;;;;;4.05;1.85;;;;;;;27.01;35.89;100669.41;4919532;29;20493;-73
2022/07/04 00:35:10;;;;;;;2.33;1.40;;;;;;;26.91;35.46;100663.56;4937261;29;20051;-72
2022/07/04 00:37:40;;;;;;;2.53;1.88;;;;;;;26.73;36.22;100661.63;4928828;28;20137;-72
2022/07/04 00:40:10;;;;;;;4.57;1.63;;;;;;;26.59;38.27;100666.63;4932261;29;20051;-73
2022/07/04 00:42:38;;;;;;;2.42;1.50;;;;;;;26.45;38.66;100667.97;4931427;29;20055;-71
2022/07/04 00:45:08;;;;;;;3.97;2.25;;;;;;;26.25;37.96;100667.84;4939574;29;20106;-72
2022/07/04 00:47:36;;;;;;;2.20;1.45;;;;;;;26.10;38.67;100667.50;4943729;29;20055;-72
2022/07/04 00:50:05;;;;;;;3.25;1.80;;;;;;;26.06;41.02;100668.53;4928973;29;20055;-73
2022/07/04 00:52:34;;;;;;;3.15;2.08;;;;;;;25.95;37.99;100661.88;4922966;29;20052;-72
2022/07/04 00:55:06;;;;;;;2.67;1.63;;;;;;;25.75;39.13;100658.16;4928267;29;20044;-74
2022/07/04 00:57:34;;;;;;;3.35;1.90;;;;;;;25.61;40.73;100661.28;4925552;29;20111;-73
2022/07/04 01:00:03;;;;;;;2.33;1.90;;;;;;;25.46;40.08;100654.69;4925960;29;20052;-73
2022/07/04 01:02:31;;;;;;;3.22;1.80;;;;;;;25.29;40.14;100663.22;4916966;29;20495;-73
2022/07/04 01:05:00;;;;;;;2.85;1.70;;;;;;;25.16;39.06;100653.91;4929300;29;20694;-72
2022/07/04 01:07:29;;;;;;;2.47;1.85;;;;;;;25.06;41.45;100656.00;4931857;29;20479;-73
2022/07/04 01:09:58;;;;;;;2.28;1.55;;;;;;;25.01;41.37;100657.91;4929151;29;20051;-73
2022/07/04 01:12:30;;;;;;;3.35;1.90;;;;;;;24.94;39.60;100647.56;4931097;29;20043;-72
2022/07/04 01:14:58;;;;;;;2.90;1.70;;;;;;;24.86;40.32;100648.69;4937110;29;20106;-73
2022/07/04 01:17:27;;;;;;;2.33;1.90;;;;;;;24.82;41.16;100648.81;4932915;29;20290;-75
2022/07/04 01:19:55;;;;;;;2.70;1.92;;;;;;;24.77;40.98;100651.63;4929271;29;20462;-75
2022/07/04 01:22:25;;;;;;;2.47;1.75;;;;;;;24.72;41.77;100650.91;4930632;29;20110;-74
2022/07/04 01:24:54;;;;;;;3.78;1.83;;;;;;;24.65;40.52;100649.34;4931031;29;20513;-72
2022/07/04 01:27:22;;;;;;;4.07;2.42;;;;;;;24.57;40.55;100651.34;4931242;29;20073;-73
2022/07/04 01:29:51;;;;;;;6.47;2.13;;;;;;;24.46;42.54;100649.88;4931828;29;20052;-74
2022/07/04 01:32:20;;;;;;;4.15;1.73;;;;;;;24.41;42.20;100646.47;4927161;29;20100;-74
2022/07/04 01:34:49;;;;;;;3.60;2.00;;;;;;;24.33;42.70;100637.94;4929575;29;20569;-74
2022/07/04 01:37:17;;;;;;;4.00;1.83;;;;;;;24.32;41.47;100652.03;4930412;29;20050;-73
2022/07/04 01:39:47;;;;;;;7.82;1.92;;;;;;;24.27;42.60;100653.97;4936855;28;20059;-74
2022/07/04 01:42:16;;;;;;;2.55;1.80;;;;;;;24.23;42.14;100649.66;4931091;29;20114;-73
2022/07/04 01:44:44;;;;;;;2.63;1.85;;;;;;;24.21;42.22;100648.84;4932957;29;20516;-75
2022/07/04 01:47:13;;;;;;;2.20;1.70;;;;;;;24.16;43.23;100651.63;4932655;29;20054;-74
2022/07/04 01:49:41;;;;;;;3.50;1.67;;;;;;;24.15;43.70;100649.03;4930978;29;20103;-74
2022/07/04 01:52:10;;;;;;;2.22;1.67;;;;;;;24.11;42.88;100648.25;4934212;29;20556;-74
2022/07/04 01:54:38;;;;;;;3.97;2.00;;;;;;;24.08;42.72;100650.97;4930596;29;20047;-73
2022/07/04 01:57:09;;;;;;;4.80;1.88;;;;;;;24.02;42.12;100653.78;4927621;29;20138;-72
2022/07/04 02:02:19;;;;;;;4.60;2.28;;;;;;;23.89;42.75;100653.28;4898583;29;20047;-72
2022/07/04 02:04:47;;;;;;;7.45;2.33;;;;;;;23.86;43.34;100663.06;4941221;29;20568;-73
2022/07/04 02:07:16;;;;;;;4.10;2.20;;;;;;;23.79;42.62;100652.63;4927606;29;20514;-72
2022/07/04 02:09:44;;;;;;;3.70;2.05;;;;;;;23.77;43.92;100664.16;4928586;29;20426;-72
2022/07/04 02:15:00;;;;;;;4.28;2.03;;;;;;;23.68;43.24;100661.72;4931266;29;20055;-73
2022/07/04 02:17:28;;;;;;;3.05;1.70;;;;;;;23.66;43.14;100658.25;4929730;29;20458;-73
2022/07/04 02:19:57;;;;;;;2.28;1.80;;;;;;;23.63;43.22;100662.72;4926098;29;20055;-71
2022/07/04 02:22:25;;;;;;;3.30;1.65;;;;;;;23.61;44.36;100659.22;4926307;29;20055;-75
2022/07/04 02:24:54;;;;;;;6.10;1.48;;;;;;;23.58;44.08;100659.31;4929639;29;20051;-75
2022/07/04 02:27:24;;;;;;;2.22;1.80;;;;;;;23.52;44.07;100662.13;4925919;29;20107;-74
2022/07/04 02:29:55;;;;;;;2.42;1.73;;;;;;;23.50;44.82;100665.69;4930820;29;20070;-73
2022/07/04 02:32:24;;;;;;;4.00;1.63;;;;;;;23.44;44.44;100668.53;4927556;29;20522;-72
2022/07/04 02:34:52;;;;;;;2.58;1.50;;;;;;;23.38;44.46;100672.16;4927528;29;20451;-73
2022/07/04 02:37:21;;;;;;;3.08;1.67;;;;;;;23.29;44.62;100661.84;4933861;29;20417;-73
2022/07/04 02:39:49;;;;;;;3.90;1.77;;;;;;;23.20;44.37;100666.44;4929594;28;20060;-74
2022/07/04 02:42:25;;;;;;;6.75;1.65;;;;;;;23.13;44.28;100661.34;4934065;29;20549;-73
2022/07/04 02:44:55;;;;;;;2.15;1.58;;;;;;;23.04;45.50;100656.28;4923027;29;20059;-74
2022/07/04 02:47:23;;;;;;;2.10;1.52;;;;;;;22.97;45.66;100660.78;4917761;29;20048;-74
2022/07/04 02:49:52;;;;;;;3.25;1.67;;;;;;;22.88;46.29;100667.16;4933817;29;20301;-74
2022/07/04 02:52:21;;;;;;;4.85;1.60;;;;;;;22.82;46.49;100662.03;4932738;29;20563;-72
2022/07/04 02:54:52;;;;;;;2.17;1.42;;;;;;;22.75;46.53;100661.28;4931620;29;20048;-71
2022/07/04 02:57:21;;;;;;;3.38;1.90;;;;;;;22.69;46.41;100671.97;4933748;29;20048;-72
2022/07/04 02:59:49;;;;;;;3.55;1.55;;;;;;;22.64;46.73;100663.31;4930494;29;20113;-72
2022/07/04 03:02:19;;;;;;;4.95;2.35;;;;;;;22.59;46.74;100658.13;4930667;29;20052;-71
2022/07/04 03:04:48;;;;;;;3.92;2.35;;;;;;;22.57;46.57;100666.97;4943795;29;20055;-71
2022/07/04 03:07:16;;;;;;;10.20;7.53;;;;;;;22.53;46.99;100665.28;4926727;29;20048;-71
2022/07/04 03:09:45;;;;;;;5.15;3.25;;;;;;;22.50;47.17;100670.66;4933560;29;20091;-70
2022/07/04 03:12:14;;;;;;;4.10;2.38;;;;;;;22.48;47.30;100672.44;4929893;29;20047;-71
2022/07/04 03:14:42;;;;;;;4.45;2.53;;;;;;;22.45;47.71;100669.84;4933483;29;20059;-71
2022/07/04 03:17:11;;;;;;;7.10;2.80;;;;;;;22.44;47.36;100671.63;4934027;29;20043;-71
2022/07/04 03:19:41;;;;;;;4.70;2.85;;;;;;;22.35;48.08;100683.22;4933838;29;20102;-70
2022/07/04 03:22:09;;;;;;;4.97;2.90;;;;;;;22.29;48.62;100678.09;4932854;29;20525;-71
2022/07/04 03:24:38;;;;;;;8.75;4.72;;;;;;;22.24;48.17;100685.25;4938336;29;20525;-72
2022/07/04 03:27:06;;;;;;;4.03;2.50;;;;;;;22.13;48.42;100681.91;4931778;29;20047;-71
2022/07/04 03:29:35;;;;;;;3.50;2.13;;;;;;;22.03;48.75;100682.97;4932891;29;20068;-70
2022/07/04 03:32:04;;;;;;;2.78;1.65;;;;;;;21.95;48.80;100676.06;4932422;29;20556;-70
2022/07/04 03:34:32;;;;;;;2.67;1.60;;;;;;;21.80;49.37;100676.34;4939848;29;20043;-71
2022/07/04 03:37:02;;;;;;;3.45;2.08;;;;;;;21.66;49.65;100675.75;4934998;29;20043;-73
2022/07/04 03:39:31;;;;;;;2.83;1.63;;;;;;;21.55;49.49;100681.19;4934709;28;20062;-72
2022/07/04 03:41:59;;;;;;;2.20;1.50;;;;;;;21.46;50.05;100678.69;4932713;29;20043;-72
2022/07/04 03:44:28;;;;;;;1.80;1.13;;;;;;;21.37;50.08;100684.94;4933940;29;20661;-72
2022/07/04 03:46:56;;;;;;;1.65;1.02;;;;;;;21.29;51.29;100684.22;4934884;29;20486;-72
2022/07/04 03:49:25;;;;;;;3.75;2.35;;;;;;;21.21;51.21;100684.34;4925003;29;20107;-73
2022/07/04 03:51:53;;;;;;;2.78;1.60;;;;;;;21.15;51.11;100692.31;4932973;29;20052;-72
2022/07/04 03:54:23;;;;;;;3.97;2.55;;;;;;;21.04;50.97;100684.59;4921289;29;20100;-71
2022/07/04 03:56:52;;;;;;;3.17;1.45;;;;;;;21.02;50.97;100689.00;4918985;29;20052;-71
2022/07/04 03:59:20;;;;;;;2.97;2.30;;;;;;;21.00;51.30;100695.19;4928584;29;20063;-71
2022/07/04 04:01:49;;;;;;;4.80;3.70;;;;;;;20.96;51.65;100694.38;4920665;29;20501;-70
2022/07/04 04:07:02;;;;;;;4.82;3.10;;;;;;;20.85;51.25;100697.13;4928311;29;20414;-71
2022/07/04 04:09:33;;;;;;;2.53;1.20;;;;;;;20.79;51.39;100699.84;4926716;29;20573;-72
2022/07/04 04:12:01;;;;;;;18.33;16.42;;;;;;;20.70;51.41;100692.94;4931028;29;20558;-71
2022/07/04 04:14:30;;;;;;;2.67;1.13;;;;;;;20.64;51.55;100711.44;4922116;29;20051;-73
2022/07/04 04:16:58;;;;;;;3.47;2.17;;;;;;;20.50;52.10;100705.44;4924531;29;20055;-71
2022/07/04 04:19:27;;;;;;;5.35;1.02;;;;;;;20.43;52.30;100703.78;4919215;29;20052;-71
2022/07/04 04:21:55;;;;;;;1.20;0.90;;;;;;;20.34;52.69;100709.13;4920647;29;20499;-72
2022/07/04 04:24:24;;;;;;;1.88;0.82;;;;;;;20.26;52.91;100717.13;4917763;29;20092;-72
2022/07/04 04:26:54;;;;;;;3.28;1.10;;;;;;;20.21;53.49;100711.91;4930510;29;20563;-71
2022/07/04 04:29:23;;;;;;;2.53;1.92;;;;;;;20.14;53.34;100717.25;4929957;29;20051;-72
2022/07/04 04:31:51;;;;;;;2.67;1.55;;;;;;;20.09;53.69;100717.31;4932967;29;20052;-70
2022/07/04 04:34:20;;;;;;;4.35;1.85;;;;;;;20.00;54.23;100718.25;4942403;29;20094;-72
2022/07/04 04:36:48;;;;;;;1.13;0.90;;;;;;;19.97;54.20;100720.03;4929523;29;20058;-71
2022/07/04 04:39:17;;;;;;;1.65;1.45;;;;;;;19.97;53.97;100723.53;4933053;28;20064;-72
2022/07/04 04:41:45;;;;;;;2.42;0.68;;;;;;;19.85;54.48;100719.25;4932952;29;20569;-72
2022/07/04 04:44:15;;;;;;;1.45;1.00;;;;;;;19.90;54.68;100726.25;4931070;29;20051;-71
2022/07/04 04:46:44;;;;;;;1.88;0.88;;;;;;;19.82;54.52;100726.31;4923012;29;20055;-73
2022/07/04 04:49:12;;;;;;;10.95;6.20;;;;;;;19.78;54.65;100725.47;4931770;29;20110;-71
2022/07/04 04:51:41;;;;;;;1.02;0.80;;;;;;;19.74;55.18;100734.25;4923425;29;20047;-71
2022/07/04 04:54:10;;;;;;;2.33;0.80;;;;;;;19.67;55.40;100724.66;4930611;29;20690;-72
2022/07/04 04:56:38;;;;;;;3.67;1.00;;;;;;;19.61;55.84;100732.59;4931094;29;20120;-73
2022/07/04 04:59:07;;;;;;;18.58;13.45;;;;;;;19.57;55.96;100730.88;4931390;29;20131;-72
2022/07/04 05:01:37;;;;;;;1.52;1.00;;;;;;;19.57;56.58;100733.50;4930335;29;20040;-71
2022/07/04 05:04:06;;;;;;;11.35;9.25;;;;;;;19.56;55.78;100729.13;4938159;29;20130;-72
2022/07/04 05:06:34;;;;;;;3.00;2.35;;;;;;;19.53;56.37;100734.41;4927077;29;20112;-73
2022/07/04 05:09:03;;;;;;;1.65;0.65;;;;;;;19.50;56.45;100734.44;4931415;29;20088;-71
2022/07/04 05:11:32;;;;;;;3.42;0.70;;;;;;;19.45;56.63;100743.19;4930255;29;21191;-75
2022/07/04 05:14:00;;;;;;;2.88;2.40;;;;;;;19.42;56.47;100738.00;4932172;29;20566;-73
2022/07/04 05:16:28;;;;;;;15.40;12.55;;;;;;;19.39;56.61;100747.63;4930139;29;20047;-74
2022/07/04 05:18:59;;;;;;;16.95;13.65;;;;;;;19.35;56.77;100745.88;4929949;29;20052;-73
2022/07/04 05:21:28;;;;;;;45.38;37.60;;;;;;;19.30;55.99;100745.06;4928560;29;20044;-77
2022/07/04 05:23:56;;;;;;;65.28;53.30;;;;;;;19.26;56.31;100749.44;4931002;29;20047;-75
2022/07/04 05:26:25;;;;;;;1.52;0.90;;;;;;;19.20;56.05;100747.75;4931708;29;20064;-74
2022/07/04 05:28:55;;;;;;;12.68;6.70;;;;;;;19.16;56.41;100748.63;4930668;29;20063;-74
2022/07/04 05:31:24;;;;;;;14.27;8.45;;;;;;;19.12;56.74;100748.66;4929398;29;20047;-72
2022/07/04 05:33:54;;;;;;;18.38;10.40;;;;;;;19.10;56.71;100755.66;4928787;29;20197;-72
2022/07/04 05:36:24;;;;;;;6.85;3.72;;;;;;;19.05;56.38;100756.56;4937905;29;20039;-75
2022/07/04 05:38:52;;;;;;;9.68;5.40;;;;;;;19.01;56.30;100761.81;4929721;28;20060;-74
2022/07/04 05:41:21;;;;;;;1.10;0.70;;;;;;;18.93;56.53;100756.63;4926058;29;20055;-74
2022/07/04 05:43:50;;;;;;;8.35;4.72;;;;;;;18.86;56.81;100754.91;4926121;29;20486;-71
2022/07/04 05:46:18;;;;;;;8.50;4.35;;;;;;;18.80;57.26;100758.41;4932515;29;20052;-73
2022/07/04 05:48:47;;;;;;;15.35;8.68;;;;;;;18.74;57.33;100757.56;4941643;29;20122;-72
2022/07/04 05:51:15;;;;;;;6.88;4.03;;;;;;;18.68;57.61;100757.59;4930403;29;20044;-71
2022/07/04 05:53:45;;;;;;;8.45;3.55;;;;;;;18.63;58.21;100760.22;4923897;29;20055;-73
2022/07/04 05:56:14;;;;;;;2.95;1.60;;;;;;;18.57;57.40;100761.09;4929272;29;20123;-74
2022/07/04 05:58:42;;;;;;;9.07;4.35;;;;;;;18.51;57.87;100763.75;4928983;29;20044;-71
2022/07/04 06:01:11;;;;;;;1.13;0.77;;;;;;;18.48;58.34;100763.75;4929161;29;20153;-72
2022/07/04 06:03:39;;;;;;;2.13;1.30;;;;;;;18.46;58.60;100768.13;4928494;29;20048;-72
2022/07/04 06:06:08;;;;;;;2.50;1.67;;;;;;;18.45;58.51;100768.13;4927763;29;20115;-72
2022/07/04 06:08:37;;;;;;;3.20;1.70;;;;;;;18.41;58.43;100764.66;4928333;29;20550;-73
2022/07/04 06:11:07;;;;;;;3.08;1.83;;;;;;;18.37;58.98;100770.75;4931340;29;20563;-75
2022/07/04 06:13:35;;;;;;;1.42;1.00;;;;;;;18.30;58.84;100763.78;4931562;29;20062;-72
2022/07/04 06:16:04;;;;;;;2.20;1.38;;;;;;;18.30;59.06;100774.28;4932489;29;20115;-75
2022/07/04 06:18:32;;;;;;;1.77;1.10;;;;;;;18.24;58.62;100763.81;4932848;29;20077;-73
2022/07/04 06:21:01;;;;;;;3.40;2.05;;;;;;;18.17;59.25;100766.44;4933115;29;20051;-71
2022/07/04 06:23:29;;;;;;;2.53;1.10;;;;;;;18.13;58.67;100758.59;4931405;29;20082;-71
2022/07/04 06:25:58;;;;;;;1.77;1.13;;;;;;;18.09;59.00;100767.31;4935559;29;20059;-71
2022/07/04 06:28:29;;;;;;;4.65;2.40;;;;;;;18.05;60.09;100766.47;4935303;29;20538;-71
2022/07/04 06:30:57;;;;;;;2.38;1.35;;;;;;;18.01;59.57;100764.72;4936850;29;20058;-71
2022/07/04 06:33:26;;;;;;;1.00;0.68;;;;;;;17.96;59.73;100766.47;4932132;29;20059;-71
2022/07/04 06:35:54;;;;;;;1.35;0.80;;;;;;;17.92;59.58;100764.72;4925802;29;20502;-71
2022/07/04 06:38:24;;;;;;;1.58;0.80;;;;;;;17.89;59.65;100763.00;4935220;28;20553;-71
2022/07/04 06:40:55;;;;;;;1.02;0.52;;;;;;;17.87;59.59;100763.88;4925854;29;20134;-71
2022/07/04 06:43:25;;;;;;;1.20;0.68;;;;;;;17.83;58.96;100760.38;4920876;29;20048;-71
2022/07/04 06:45:55;;;;;;;2.78;0.68;;;;;;;17.78;58.84;100762.09;4922118;29;20119;-71
2022/07/04 06:48:23;;;;;;;0.85;0.63;;;;;;;17.70;58.92;100762.06;4935417;29;20119;-72
2022/07/04 06:50:52;;;;;;;1.20;0.80;;;;;;;17.66;59.68;100773.44;4934875;29;20441;-72
2022/07/04 06:53:21;;;;;;;2.65;0.82;;;;;;;17.59;59.73;100774.28;4918321;29;20052;-71
2022/07/04 06:55:49;;;;;;;2.85;1.02;;;;;;;17.56;59.81;100774.28;4919105;29;20107;-70
2022/07/04 06:58:18;;;;;;;0.82;0.52;;;;;;;17.54;60.30;100773.41;4918584;29;20135;-71
2022/07/04 07:00:47;;;;;;;2.03;1.08;;;;;;;17.50;60.44;100772.53;4919512;29;20048;-70
2022/07/04 07:03:17;;;;;;;2.03;0.52;;;;;;;17.48;60.24;100778.66;4926177;29;20083;-70
2022/07/04 07:05:45;;;;;;;1.08;0.60;;;;;;;17.43;60.87;100768.16;4940189;29;20043;-71
2022/07/04 07:08:14;;;;;;;1.63;0.90;;;;;;;17.37;60.80;100776.00;4923086;29;20140;-71
2022/07/04 07:10:42;;;;;;;2.97;1.20;;;;;;;17.32;63.05;100777.75;4933915;29;20056;-71
2022/07/04 07:13:11;;;;;;;2.38;0.77;;;;;;;17.26;63.62;100772.50;4922282;29;20081;-72
2022/07/04 07:15:39;;;;;;;1.27;0.60;;;;;;;17.19;62.58;100781.19;4928175;29;20048;-71
2022/07/04 07:18:08;;;;;;;2.35;1.08;;;;;;;17.15;63.42;100786.38;4925310;29;20055;-71
2022/07/04 07:20:38;;;;;;;1.45;0.73;;;;;;;17.03;63.56;100782.88;4924906;29;20464;-71
2022/07/04 07:23:07;;;;;;;1.40;0.75;;;;;;;17.02;62.29;100789.84;4932060;29;20046;-71
2022/07/04 07:25:36;;;;;;;0.50;0.40;;;;;;;17.01;62.09;100792.47;4929881;29;20059;-73
2022/07/04 07:28:04;;;;;;;1.58;0.47;;;;;;;16.98;61.49;100788.09;4931975;29;20047;-71
2022/07/04 07:30:33;;;;;;;1.17;0.50;;;;;;;16.95;61.03;100788.97;4931108;29;20106;-72
2022/07/04 07:33:01;;;;;;;1.27;0.40;;;;;;;16.93;61.86;100789.81;4930291;29;20051;-70
2022/07/04 07:35:30;;;;;;;0.52;0.35;;;;;;;16.93;60.98;100790.69;4933237;29;20106;-71
2022/07/04 07:38:00;;;;;;;1.00;0.40;;;;;;;16.91;61.41;100791.56;4931547;29;20059;-71
2022/07/04 07:40:28;;;;;;;0.77;0.52;;;;;;;16.90;62.00;100795.00;4934533;28;20143;-71
2022/07/04 07:42:57;;;;;;;0.80;0.35;;;;;;;16.86;60.92;100794.16;4931213;29;20510;-71
2022/07/04 07:45:26;;;;;;;0.43;0.30;;;;;;;16.84;60.29;100795.88;4941748;29;20059;-72
2022/07/04 07:47:54;;;;;;;0.30;0.30;;;;;;;16.79;61.53;100797.59;4933452;29;20048;-71
2022/07/04 07:50:23;;;;;;;0.70;0.30;;;;;;;16.73;61.86;100790.56;4933043;29;20051;-72
2022/07/04 07:52:51;;;;;;;2.13;0.88;;;;;;;16.71;62.42;100788.81;4930803;29;20103;-71
2022/07/04 07:55:21;;;;;;;1.27;0.40;;;;;;;16.65;61.20;100791.38;4932926;29;20111;-71
2022/07/04 07:57:50;;;;;;;2.10;0.40;;;;;;;16.61;62.62;100781.81;4931590;29;20047;-71
2022/07/04 08:00:19;;;;;;;1.83;0.57;;;;;;;16.51;63.12;100781.72;4933618;29;20052;-70
2022/07/04 08:05:32;;;;;;;0.75;0.40;;;;;;;16.44;63.36;100782.56;4924240;29;20051;-71
2022/07/04 08:08:01;;;;;;;2.97;1.40;;;;;;;16.45;64.09;100783.47;4938097;29;20500;-71
2022/07/04 08:10:31;;;;;;;4.78;2.00;;;;;;;16.43;62.68;100774.75;4924395;29;20774;-71
2022/07/04 08:12:59;;;;;;;1.40;0.57;;;;;;;16.38;63.41;100776.41;4931750;29;20052;-70
2022/07/04 08:15:29;;;;;;;7.72;3.97;;;;;;;16.36;63.74;100780.78;4924541;29;20504;-71
2022/07/04 08:17:57;;;;;;;2.28;1.38;;;;;;;16.35;64.18;100777.28;4930358;29;20521;-71
2022/07/04 08:20:26;;;;;;;0.93;0.38;;;;;;;16.31;64.46;100778.16;4932785;29;20489;-71
2022/07/04 08:22:54;;;;;;;2.65;1.38;;;;;;;16.28;63.89;100775.50;4929904;29;20044;-71
2022/07/04 08:25:23;;;;;;;2.65;0.88;;;;;;;16.27;64.00;100777.25;4928830;29;20079;-70
2022/07/04 08:27:53;;;;;;;0.73;0.50;;;;;;;16.28;62.95;100778.09;4928551;29;20510;-71
2022/07/04 08:30:22;;;;;;;0.60;0.30;;;;;;;16.27;62.84;100786.81;4932987;29;20051;-71
2022/07/04 08:32:50;;;;;;;0.52;0.35;;;;;;;16.24;62.54;100781.56;4922195;29;20036;-71
2022/07/04 08:35:19;;;;;;;1.00;0.70;;;;;;;16.21;62.05;100784.16;4932303;29;20055;-71
2022/07/04 08:37:52;;;;;;;1.27;0.60;;;;;;;16.20;62.84;100785.03;4932144;29;20058;-71
2022/07/04 08:40:22;;;;;;;0.90;0.32;;;;;;;16.19;62.50;100778.06;4928736;28;20096;-71
2022/07/04 08:42:53;;;;;;;0.75;0.30;;;;;;;16.17;62.57;100774.56;4929443;29;20123;-71
2022/07/04 08:45:27;;;;;;;0.40;0.40;;;;;;;16.16;62.38;100772.81;4933496;29;20055;-71
2022/07/04 08:48:02;;;;;;;1.75;0.43;;;;;;;16.15;62.91;100766.72;4931480;29;20513;-71
2022/07/04 08:50:33;;;;;;;0.43;0.30;;;;;;;16.12;63.32;100772.78;4931910;29;20056;-71
2022/07/04 08:53:04;;;;;;;1.55;0.52;;;;;;;16.09;63.47;100775.38;4929293;29;20107;-70
2022/07/04 08:58:33;;;;;;;0.68;0.30;;;;;;;16.03;63.42;100783.16;4931468;29;20192;-71
2022/07/04 09:01:03;;;;;;;0.30;0.28;;;;;;;16.01;63.85;100789.22;4930217;29;20044;-71
2022/07/04 09:03:33;;;;;;;0.43;0.28;;;;;;;15.98;64.52;100774.41;4940488;29;20117;-70
2022/07/04 09:06:02;;;;;;;1.15;0.77;;;;;;;15.96;63.90;100772.66;4937765;29;20071;-69
2022/07/04 09:08:31;;;;;;;1.10;0.32;;;;;;;15.93;64.36;100776.13;4929354;29;20061;-71
2022/07/04 09:10:59;;;;;;;0.40;0.30;;;;;;;15.90;64.60;100765.69;4933049;29;20048;-70
2022/07/04 09:13:29;;;;;;;0.60;0.40;;;;;;;15.87;64.77;100773.47;4933786;29;20475;-70
2022/07/04 09:15:58;;;;;;;0.55;0.30;;;;;;;15.83;64.47;100769.09;4930952;29;20051;-71
2022/07/04 09:18:28;;;;;;;0.40;0.25;;;;;;;15.82;64.89;100769.94;4937933;29;20055;-70
2022/07/04 09:20:59;;;;;;;0.45;0.35;;;;;;;15.78;65.11;100770.78;4930477;29;20047;-70
2022/07/04 09:23:29;;;;;;;0.30;0.30;;;;;;;15.75;65.43;100770.75;4930478;29;20052;-71
2022/07/04 09:26:22;;;;;;;2.45;1.40;;;;;;;15.72;66.24;100771.63;4930381;29;20443;-71
2022/07/04 09:28:56;;;;;;;4.25;1.48;;;;;;;15.70;65.62;100784.63;4913831;29;20556;-71
2022/07/04 09:31:26;;;;;;;2.25;0.43;;;;;;;15.66;65.24;100777.59;4926958;29;20131;-70
2022/07/04 09:33:57;;;;;;;0.75;0.45;;;;;;;15.62;65.33;100774.94;4940809;29;20056;-71
2022/07/04 09:36:27;;;;;;;0.98;0.60;;;;;;;15.57;65.51;100776.66;4932948;29;20051;-71
2022/07/04 09:39:14;;;;;;;0.93;0.30;;;;;;;15.52;65.49;100779.22;4928375;28;20086;-70
2022/07/04 09:41:59;;;;;;;0.50;0.40;;;;;;;15.48;65.70;100783.53;4932893;29;20058;-70
2022/07/04 09:44:31;;;;;;;0.47;0.30;;;;;;;15.46;66.09;100784.34;4941894;29;20586;-71
2022/07/04 09:46:59;;;;;;;1.27;0.52;;;;;;;15.42;66.32;100786.09;4931737;29;20062;-71
2022/07/04 09:49:27;;;;;;;0.45;0.30;;;;;;;15.39;66.68;100786.06;4921744;29;20060;-70
2022/07/04 09:51:56;;;;;;;0.88;0.20;;;;;;;15.35;66.24;100786.00;4920044;29;20463;-71
2022/07/04 09:54:28;;;;;;;0.80;0.50;;;;;;;15.29;66.33;100777.25;4915720;29;20688;-71
2022/07/04 09:56:58;;;;;;;0.57;0.40;;;;;;;15.25;66.76;100785.88;4920383;29;20071;-70
2022/07/04 09:59:29;;;;;;;0.75;0.30;;;;;;;15.22;66.51;100783.25;4933261;29;20047;-70
2022/07/04 10:02:09;;;;;;;0.60;0.32;;;;;;;15.20;67.02;100781.50;4930626;29;20494;-70
2022/07/04 10:04:45;;;;;;;0.95;0.47;;;;;;;15.18;66.55;100791.88;4924998;29;20672;-71
2022/07/04 10:07:30;;;;;;;0.43;0.30;;;;;;;15.15;66.63;100794.47;4937956;29;20055;-70
2022/07/04 10:09:59;;;;;;;0.38;0.32;;;;;;;15.12;66.65;100799.66;4933538;29;20055;-70
2022/07/04 10:12:28;;;;;;;0.32;0.30;;;;;;;15.09;67.52;100797.00;4931102;29;20059;-71
2022/07/04 10:14:59;;;;;;;0.82;0.60;;;;;;;15.06;67.79;100796.97;4931950;29;20259;-70
2022/07/04 10:17:27;;;;;;;1.83;0.60;;;;;;;15.01;68.64;100798.66;4940965;29;20059;-70
2022/07/04 10:20:03;;;;;;;0.40;0.30;;;;;;;14.99;70.03;100797.75;4931540;29;20048;-71
2022/07/04 10:22:32;;;;;;;1.20;0.40;;;;;;;14.97;70.30;100799.47;4929859;29;20490;-72
2022/07/04 10:25:01;;;;;;;6.47;2.72;;;;;;;14.96;70.68;100795.13;4930115;29;20047;-70
2022/07/04 10:27:29;;;;;;;5.05;2.28;;;;;;;14.94;70.27;100809.88;4930198;29;20048;-71
2022/07/04 10:30:01;;;;;;;2.33;1.20;;;;;;;14.88;69.38;100803.69;4931449;29;20051;-71
2022/07/04 10:32:30;;;;;;;0.35;0.32;;;;;;;14.85;70.31;100806.28;4923531;29;20044;-71
2022/07/04 10:34:58;;;;;;;0.57;0.30;;;;;;;14.82;69.69;100808.84;4927186;29;20056;-71
2022/07/04 10:37:27;;;;;;;0.35;0.32;;;;;;;14.79;70.09;100813.13;4927701;29;20044;-70
2022/07/04 10:39:55;;;;;;;3.22;0.50;;;;;;;14.75;69.97;100806.13;4932434;28;20127;-71
2022/07/04 10:42:25;;;;;;;0.60;0.40;;;;;;;14.70;69.96;100816.47;4926303;29;20598;-70
2022/07/04 10:44:55;;;;;;;0.60;0.50;;;;;;;14.68;69.48;100804.28;4930722;29;20506;-71
2022/07/04 10:47:27;;;;;;;0.88;0.40;;;;;;;14.63;70.35;100810.31;4919479;29;20051;-71
2022/07/04 10:49:56;;;;;;;0.80;0.40;;;;;;;14.61;70.62;100813.75;4932336;29;20046;-71
2022/07/04 10:52:24;;;;;;;0.40;0.25;;;;;;;14.55;70.55;100809.34;4918334;29;20044;-71
2022/07/04 10:54:53;;;;;;;0.50;0.30;;;;;;;14.52;70.33;100814.47;4930439;29;20044;-71
2022/07/04 10:57:22;;;;;;;0.38;0.30;;;;;;;14.48;71.09;100817.91;4932312;29;20106;-70
2022/07/04 11:00:08;;;;;;;0.35;0.30;;;;;;;14.44;71.49;100822.16;4941587;29;20095;-70
2022/07/04 11:02:38;;;;;;;0.30;0.30;;;;;;;14.41;71.23;100822.13;4929760;29;20055;-70
2022/07/04 11:05:09;;;;;;;0.90;0.55;;;;;;;14.38;72.17;100824.66;4932145;29;20105;-71
2022/07/04 11:08:06;;;;;;;1.35;0.40;;;;;;;14.35;72.26;100819.44;4932389;29;20047;-71
2022/07/04 11:10:38;;;;;;;0.65;0.40;;;;;;;14.33;71.99;100831.53;4900407;29;20103;-70
2022/07/04 11:13:18;;;;;;;0.45;0.35;;;;;;;14.30;72.96;100826.31;4923590;29;20115;-71
2022/07/04 11:16:04;;;;;;;0.85;0.38;;;;;;;14.26;72.67;100827.09;4930276;29;20062;-70
2022/07/04 11:18:43;;;;;;;0.68;0.35;;;;;;;14.24;72.72;100826.19;4928141;29;20088;-70
2022/07/04 11:21:25;;;;;;;0.47;0.30;;;;;;;14.21;72.60;100832.22;4934636;29;20058;-70
2022/07/04 11:23:58;;;;;;;0.30;0.30;;;;;;;14.18;72.39;100824.38;4933060;29;20414;-70
2022/07/04 11:26:26;;;;;;;;;;;;;;;14.14;73.03;100825.19;4924997;29;20087;-70
2022/07/04 11:28:55;;;;;;;1.42;0.65;;;;;;;14.10;72.99;100827.72;4923790;29;19934;-70
2022/07/04 11:31:36;;;;;;;2.15;0.30;;;;;;;14.03;72.79;100827.59;4933413;29;20043;-70
2022/07/04 11:34:06;;;;;;;0.90;0.43;;;;;;;14.02;72.79;100836.28;4931714;29;20055;-70
2022/07/04 11:36:35;;;;;;;0.43;0.38;;;;;;;13.98;73.39;100833.59;4923799;29;20064;-70
2022/07/04 11:39:06;;;;;;;0.55;0.32;;;;;;;13.95;73.12;100837.03;4930113;28;20055;-70
2022/07/04 11:47:11;;;;;;;0.55;0.22;;;;;;;13.87;74.44;100845.53;4928339;29;20126;-70
2022/07/04 11:49:45;;;;;;;1.00;0.40;;;;;;;13.84;74.81;100841.16;4931090;29;20052;-70
2022/07/04 11:52:14;;;;;;;0.52;0.35;;;;;;;13.80;73.97;100844.56;4943306;29;20341;-69
2022/07/04 11:54:44;;;;;;;0.45;0.45;;;;;;;13.78;75.22;100846.25;4931491;29;20056;-70